Flight Track Log - Related Links

Times and Time Zones

All times are in EST time to prevent confusion due to time zone crossing. See the JBU56 flight status page for this flight to view local times or setup timezone preferences in your user account.

Time Position Orientation Groundspeed Altitude Reporting Facility
EST Latitude Longitude Course Direction KTS MPH feet Rate Location/Type
Sun 09:58:26 AM 38.9667 -77.5000 90° East 165 190 2,600  Level Potomac TRACON
Sun 09:59:32 AM 39.0333 -77.5000 360° North 213 245 6,000 3,333 Climbing Potomac TRACON
Sun 10:00:00 AM 39.1975 -77.0299 74° East  Level Estimated
Sun 10:00:32 AM 39.1000 -77.5000 360° North 232 267 9,600  Level Potomac TRACON
Sun 10:01:00 AM 39.2598 -76.9219 90° East  Level Estimated
Sun 10:01:32 AM 39.1333 -77.4167 63° Northeast 321 369 10,100  Level Potomac TRACON
Sun 10:02:00 AM 39.3220 -76.8137 76° East  Level Estimated
Sun 10:02:32 AM 39.1500 -77.3000 80° East 356 410 10,100  Level Potomac TRACON
Sun 10:03:00 AM 39.3841 -76.7054 90° East  Level Estimated
Sun 10:04:21 AM 39.1003 -77.0681 105° East 367 422 12,700  Level Washington Center
Sun 10:05:23 AM 39.0872 -76.9286 97° East 372 428 15,300 2,410 Climbing Washington Center
Sun 10:06:23 AM 39.0992 -76.7844 84° East 384 442 17,600 1,983 Climbing Washington Center
Sun 10:07:21 AM 39.1153 -76.6322 82° East 408 470 19,200 1,714 Climbing Washington Center
Sun 10:08:22 AM 39.1289 -76.4692 84° East 437 503 21,000 1,736 Climbing Washington Center
Sun 10:09:22 AM 39.1425 -76.2981 84° East 463 533 22,700 1,119 Climbing Washington Center
Sun 10:10:20 AM 39.1644 -76.1217 81° East 481 554 23,200 908 Climbing Washington Center
Sun 10:11:21 AM 39.1881 -75.9478 80° East 493 567 24,500 878 Climbing Washington Center
Sun 10:12:23 AM 39.2569 -75.7953 60° Northeast 473 544 25,000 650 Climbing Washington Center
Sun 10:13:21 AM 39.3508 -75.6775 44° Northeast 462 532 25,800 1,047 Climbing Washington Center
Sun 10:14:52 AM 39.4847 -75.5053 45° Northeast 485 558 27,600 1,232 Climbing New York Center
Sun 10:15:52 AM 39.5836 -75.3772 45° Northeast 490 564 28,900 1,500 Climbing New York Center
Sun 10:16:52 AM 39.6761 -75.2483 47° Northeast 490 564 30,600 1,050 Climbing New York Center
Sun 10:17:52 AM 39.7800 -75.0928 49° Northeast 502 578 31,000 200 Climbing New York Center
Sun 10:18:52 AM 39.8747 -74.9553 48° Northeast 507 583 31,000  Level New York Center
Sun 10:19:52 AM 39.9667 -74.8308 46° Northeast 518 596 31,000  Level New York Center
Sun 10:20:52 AM 40.0508 -74.6839 53° Northeast 518 596 31,000  Level New York Center
Sun 10:21:52 AM 40.1469 -74.5453 48° Northeast 518 596 31,000  Level New York Center
Sun 10:22:52 AM 40.2500 -74.3850 50° Northeast 518 596 31,000  Level New York Center
Sun 10:24:48 AM 40.4156 -74.1333 49° Northeast 522 601 31,000  Level Boston Center
Sun 10:25:48 AM 40.5231 -73.9672 50° Northeast 519 597 31,000  Level Boston Center
Sun 10:26:49 AM 40.6164 -73.8242 49° Northeast 518 596 31,000 -98 Level Boston Center
Sun 10:27:51 AM 40.7086 -73.6797 50° Northeast 515 593 30,800 -1,377 Descending Boston Center
Sun 10:28:51 AM 40.8000 -73.5375 50° Northeast 510 587 28,200 -1,884 Descending Boston Center
Sun 10:29:52 AM 40.8858 -73.4014 50° Northeast 488 562 27,000 -590 Descending Boston Center
Sun 10:30:53 AM 40.9656 -73.2867 47° Northeast 471 542 27,000 -541 Level Boston Center
Sun 10:31:54 AM 41.0531 -73.1553 49° Northeast 474 545 25,900 -1,279 Descending Boston Center
Sun 10:32:55 AM 41.1386 -73.0278 48° Northeast 469 540 24,400 -1,426 Descending Boston Center
Sun 10:33:56 AM 41.2161 -72.9014 51° Northeast 450 518 23,000 -694 Descending Boston Center
Sun 10:34:56 AM 41.2758 -72.7339 65° Northeast 441 507 23,000  Level Boston Center
Sun 10:35:58 AM 41.3272 -72.5867 65° Northeast 438 504 23,000  Level Boston Center
Sun 10:36:58 AM 41.3783 -72.4397 65° Northeast 436 502 23,000  Level Boston Center
Sun 10:37:59 AM 41.4297 -72.2933 65° Northeast 436 502 23,000  Level Boston Center
Sun 10:39:00 AM 41.4806 -72.1475 65° Northeast 435 501 23,000  Level Boston Center
Sun 10:40:01 AM 41.5344 -72.0036 63° Northeast 433 498 23,000 -645 Level Boston Center
Sun 10:41:01 AM 41.5872 -71.8592 64° Northeast 432 497 21,700 -1,686 Descending Boston Center
Sun 10:42:02 AM 41.6383 -71.7206 64° Northeast 423 487 19,600 -1,983 Descending Boston Center
Sun 10:43:02 AM 41.6944 -71.5972 59° Northeast 406 467 17,700 -1,934 Descending Boston Center
Sun 10:44:03 AM 41.7364 -71.4547 68° East 362 417 15,700 -1,835 Descending Boston Center
Sun 10:45:03 AM 41.7783 -71.3367 64° Northeast 356 410 14,000 -1,736 Descending Boston Center
Sun 10:46:04 AM 41.8222 -71.2172 64° Northeast 338 389 12,200 -1,500 Descending Boston Center
Sun 10:47:07 AM 41.8642 -71.1114 62° Northeast 324 373 10,900 -1,085 Descending Boston Center
Sun 10:47:38 AM 41.9000 -71.0667 43° Northeast 277 319 10,500 -1,385 Descending KA90
Sun 10:48:38 AM 41.9500 -71.0000 45° Northeast 262 302 8,800 -1,650 Descending KA90
Sun 10:49:38 AM 42.0000 -70.9500 37° Northeast 239 275 7,200 -1,550 Descending KA90
Sun 10:50:38 AM 42.0667 -70.9167 20° North 234 269 5,700 -1,455 Descending KA90
Sun 10:51:50 AM 42.1333 -70.8833 20° North 237 273 4,000 -857 Descending KA90
Sun 10:52:44 AM 42.2000 -70.8667 10° North 242 278 3,900 -579 Descending KA90
Sun 10:53:44 AM 42.2500 -70.8500 14° North 179 206 2,900 -955 Descending KA90
Sun 10:54:56 AM 42.3000 -70.9167 315° West 181 208 1,800 -818 Descending KA90
Sun 10:55:56 AM 42.3167 -70.9500 304° West 110 127 1,100 -667 Descending KA90
Sun 10:57:02 AM 42.3500 -70.9833 324° Northwest 116 133 400 -636 Descending KA90

Login

Don't have an account? Register now (free) for customized features, flight alerts, and more!